PWSweather.com
Personal Weather Stations
Station Observations
KC4KQE
Superstition Mountains, Apache Junction, AZ 85119

Superstition MountainsApache Junction, AZ 85119

Lat: 33.41578, Lon: -111.49328

Elevation: 1850

Station Type: Davis Vantage Pro2 Plus

http://kc4kqe.org/

High Low Average
Temperature 102.1°F38.9°C 70.5°F21.4°C 88.2°F31.2°C
Dew Point 31.4°F-0.3°C 15.1°F-9.4°C 22.7°F-5.2°C
Winds 11.0 mph 17.7 kmh Calm Calm 3.0 mph SSE4.8 kmh SSE
Wind Gusts 15.0 mph24.1 kmh -- 6.0 mph9.7 kmh
Humidity 21% 5% 10%
Pressure 29.95 in1014.2 mb 29.82 in1009.8 mb -
Precipitation 0.00 in0.0 mm - -
Hour Temp Dew Point Humidity Winds Wind Gusts Pressure Precip Precip Rate Daily Precip Total
12:00 AM 80.6°F27.0°C 23.2°F-4.9°C 12% 1.0 mph NNE1.6 kmh NNE -- 29.90 in1012.5 mb 0.00 in0.0 mm 0.00 in0.0 mm 0.00 in0.0 mm
12:05 AM 80.3°F26.8°C 23.0°F-5.0°C 12% 1.0 mph NNE1.6 kmh NNE -- 29.91 in1012.9 mb 0.00 in0.0 mm 0.00 in0.0 mm 0.00 in0.0 mm
12:10 AM 80.1°F26.7°C 24.8°F-4.0°C 13% 1.0 mph NNE1.6 kmh NNE -- 29.91 in1012.9 mb 0.00 in0.0 mm 0.00 in0.0 mm 0.00 in0.0 mm
12:15 AM 79.8°F26.6°C 24.5°F-4.2°C 13% 1.0 mph NNE1.6 kmh NNE -- 29.91 in1012.9 mb 0.00 in0.0 mm 0.00 in0.0 mm 0.00 in0.0 mm
12:20 AM 79.5°F26.4°C 24.3°F-4.3°C 13% 1.0 mph NNE1.6 kmh NNE -- 29.91 in1012.9 mb 0.00 in0.0 mm 0.00 in0.0 mm 0.00 in0.0 mm
12:25 AM 79.1°F26.2°C 24.0°F-4.4°C 13% 1.0 mph NNE1.6 kmh NNE -- 29.91 in1012.9 mb 0.00 in0.0 mm 0.00 in0.0 mm 0.00 in0.0 mm
12:30 AM 78.7°F25.9°C 23.7°F-4.6°C 13% 1.0 mph NNE1.6 kmh NNE -- 29.91 in1012.9 mb 0.00 in0.0 mm 0.00 in0.0 mm 0.00 in0.0 mm
12:35 AM 78.4°F25.8°C 23.4°F-4.8°C 13% 1.0 mph NNE1.6 kmh NNE -- 29.91 in1012.9 mb 0.00 in0.0 mm 0.00 in0.0 mm 0.00 in0.0 mm
12:40 AM 78.1°F25.6°C 23.2°F-4.9°C 13% 2.0 mph NE3.2 kmh NE 2.0 mph3.2 kmh 29.91 in1012.9 mb 0.00 in0.0 mm 0.00 in0.0 mm 0.00 in0.0 mm
12:45 AM 77.7°F25.4°C 24.7°F-4.1°C 14% 2.0 mph NE3.2 kmh NE 3.0 mph4.8 kmh 29.91 in1012.9 mb 0.00 in0.0 mm 0.00 in0.0 mm 0.00 in0.0 mm
12:50 AM 77.5°F25.3°C 24.5°F-4.2°C 14% 1.0 mph NE1.6 kmh NE 3.0 mph4.8 kmh 29.90 in1012.5 mb 0.00 in0.0 mm 0.00 in0.0 mm 0.00 in0.0 mm
12:55 AM 77.2°F25.1°C 24.3°F-4.3°C 14% 1.0 mph NE1.6 kmh NE 3.0 mph4.8 kmh 29.90 in1012.5 mb 0.00 in0.0 mm 0.00 in0.0 mm 0.00 in0.0 mm
01:00 AM 77.0°F25.0°C 24.1°F-4.4°C 14% 1.0 mph NE1.6 kmh NE 2.0 mph3.2 kmh 29.90 in1012.5 mb 0.00 in0.0 mm 0.00 in0.0 mm 0.00 in0.0 mm
01:05 AM 76.8°F24.9°C 23.9°F-4.5°C 14% 2.0 mph NE3.2 kmh NE 2.0 mph3.2 kmh 29.90 in1012.5 mb 0.00 in0.0 mm 0.00 in0.0 mm 0.00 in0.0 mm
01:10 AM 76.5°F24.7°C 23.7°F-4.6°C 14% 2.0 mph NE3.2 kmh NE 2.0 mph3.2 kmh 29.90 in1012.5 mb 0.00 in0.0 mm 0.00 in0.0 mm 0.00 in0.0 mm
01:15 AM 76.2°F24.6°C 23.5°F-4.7°C 14% 2.0 mph NE3.2 kmh NE 2.0 mph3.2 kmh 29.90 in1012.5 mb 0.00 in0.0 mm 0.00 in0.0 mm 0.00 in0.0 mm
01:20 AM 76.0°F24.4°C 23.3°F-4.8°C 14% Calm Calm 2.0 mph3.2 kmh 29.90 in1012.5 mb 0.00 in0.0 mm 0.00 in0.0 mm 0.00 in0.0 mm
01:25 AM 75.8°F24.3°C 23.2°F-4.9°C 14% Calm Calm 1.0 mph1.6 kmh 29.90 in1012.5 mb 0.00 in0.0 mm 0.00 in0.0 mm 0.00 in0.0 mm
01:30 AM 75.5°F24.2°C 22.9°F-5.1°C 14% Calm Calm 2.0 mph3.2 kmh 29.90 in1012.5 mb 0.00 in0.0 mm 0.00 in0.0 mm 0.00 in0.0 mm
01:35 AM 75.2°F24.0°C 22.7°F-5.2°C 14% 2.0 mph NE3.2 kmh NE 3.0 mph4.8 kmh 29.90 in1012.5 mb 0.00 in0.0 mm 0.00 in0.0 mm 0.00 in0.0 mm
01:40 AM 74.7°F23.7°C 23.9°F-4.5°C 15% 1.0 mph NE1.6 kmh NE 3.0 mph4.8 kmh 29.90 in1012.5 mb 0.00 in0.0 mm 0.00 in0.0 mm 0.00 in0.0 mm
01:45 AM 74.4°F23.6°C 23.7°F-4.6°C 15% 1.0 mph NE1.6 kmh NE 2.0 mph3.2 kmh 29.90 in1012.5 mb 0.00 in0.0 mm 0.00 in0.0 mm 0.00 in0.0 mm
01:50 AM 74.1°F23.4°C 23.4°F-4.8°C 15% 1.0 mph NE1.6 kmh NE 2.0 mph3.2 kmh 29.90 in1012.5 mb 0.00 in0.0 mm 0.00 in0.0 mm 0.00 in0.0 mm
01:55 AM 73.8°F23.2°C 23.2°F-4.9°C 15% 1.0 mph NE1.6 kmh NE 3.0 mph4.8 kmh 29.90 in1012.5 mb 0.00 in0.0 mm 0.00 in0.0 mm 0.00 in0.0 mm
02:00 AM 73.6°F23.1°C 23.1°F-4.9°C 15% Calm Calm 1.0 mph1.6 kmh 29.90 in1012.5 mb 0.00 in0.0 mm 0.00 in0.0 mm 0.00 in0.0 mm
02:05 AM 73.4°F23.0°C 22.9°F-5.1°C 15% Calm Calm 1.0 mph1.6 kmh 29.90 in1012.5 mb 0.00 in0.0 mm 0.00 in0.0 mm 0.00 in0.0 mm
02:10 AM 73.2°F22.9°C 24.3°F-4.3°C 16% Calm Calm 1.0 mph1.6 kmh 29.90 in1012.5 mb 0.00 in0.0 mm 0.00 in0.0 mm 0.00 in0.0 mm
02:15 AM 73.0°F22.8°C 24.1°F-4.4°C 16% Calm Calm 1.0 mph1.6 kmh 29.90 in1012.5 mb 0.00 in0.0 mm 0.00 in0.0 mm 0.00 in0.0 mm
02:20 AM 72.7°F22.6°C 23.9°F-4.5°C 16% Calm Calm -- 29.90 in1012.5 mb 0.00 in0.0 mm 0.00 in0.0 mm 0.00 in0.0 mm
02:25 AM 72.4°F22.4°C 23.6°F-4.7°C 16% Calm Calm 1.0 mph1.6 kmh 29.90 in1012.5 mb 0.00 in0.0 mm 0.00 in0.0 mm 0.00 in0.0 mm
02:30 AM 72.3°F22.4°C 23.5°F-4.7°C 16% Calm Calm -- 29.90 in1012.5 mb 0.00 in0.0 mm 0.00 in0.0 mm 0.00 in0.0 mm
02:35 AM 72.0°F22.2°C 23.3°F-4.8°C 16% Calm Calm -- 29.90 in1012.5 mb 0.00 in0.0 mm 0.00 in0.0 mm 0.00 in0.0 mm
02:40 AM 71.6°F22.0°C 24.4°F-4.2°C 17% 1.0 mph ESE1.6 kmh ESE 4.0 mph6.4 kmh 29.90 in1012.5 mb 0.00 in0.0 mm 0.00 in0.0 mm 0.00 in0.0 mm
02:45 AM 71.3°F21.8°C 24.2°F-4.3°C 17% 1.0 mph ESE1.6 kmh ESE 4.0 mph6.4 kmh 29.91 in1012.9 mb 0.00 in0.0 mm 0.00 in0.0 mm 0.00 in0.0 mm
02:50 AM 71.1°F21.7°C 25.4°F-3.7°C 18% Calm Calm 2.0 mph3.2 kmh 29.91 in1012.9 mb 0.00 in0.0 mm 0.00 in0.0 mm 0.00 in0.0 mm
02:55 AM 70.8°F21.6°C 25.1°F-3.8°C 18% Calm Calm 2.0 mph3.2 kmh 29.91 in1012.9 mb 0.00 in0.0 mm 0.00 in0.0 mm 0.00 in0.0 mm
03:00 AM 70.5°F21.4°C 23.5°F-4.7°C 17% 2.0 mph ESE3.2 kmh ESE 2.0 mph3.2 kmh 29.91 in1012.9 mb 0.00 in0.0 mm 0.00 in0.0 mm 0.00 in0.0 mm
03:05 AM 71.0°F21.7°C 23.9°F-4.5°C 17% 3.0 mph ESE4.8 kmh ESE 5.0 mph8.0 kmh 29.91 in1012.9 mb 0.00 in0.0 mm 0.00 in0.0 mm 0.00 in0.0 mm
03:10 AM 72.4°F22.4°C 23.6°F-4.7°C 16% 7.0 mph ESE11.3 kmh ESE 9.0 mph14.5 kmh 29.91 in1012.9 mb 0.00 in0.0 mm 0.00 in0.0 mm 0.00 in0.0 mm
03:15 AM 73.8°F23.2°C 24.7°F-4.1°C 16% 3.0 mph SE4.8 kmh SE 9.0 mph14.5 kmh 29.91 in1012.9 mb 0.00 in0.0 mm 0.00 in0.0 mm 0.00 in0.0 mm
03:20 AM 74.9°F23.8°C 24.1°F-4.4°C 15% 5.0 mph ESE8.0 kmh ESE 7.0 mph11.3 kmh 29.91 in1012.9 mb 0.00 in0.0 mm 0.00 in0.0 mm 0.00 in0.0 mm
03:25 AM 75.6°F24.2°C 23.0°F-5.0°C 14% 5.0 mph ESE8.0 kmh ESE 8.0 mph12.9 kmh 29.91 in1012.9 mb 0.00 in0.0 mm 0.00 in0.0 mm 0.00 in0.0 mm
03:30 AM 76.0°F24.4°C 23.3°F-4.8°C 14% 3.0 mph SE4.8 kmh SE 7.0 mph11.3 kmh 29.91 in1012.9 mb 0.00 in0.0 mm 0.00 in0.0 mm 0.00 in0.0 mm
03:35 AM 76.2°F24.6°C 23.5°F-4.7°C 14% 4.0 mph SE6.4 kmh SE 7.0 mph11.3 kmh 29.91 in1012.9 mb 0.00 in0.0 mm 0.00 in0.0 mm 0.00 in0.0 mm
03:40 AM 76.2°F24.6°C 23.5°F-4.7°C 14% 4.0 mph SE6.4 kmh SE 6.0 mph9.7 kmh 29.91 in1012.9 mb 0.00 in0.0 mm 0.00 in0.0 mm 0.00 in0.0 mm
03:45 AM 76.3°F24.6°C 23.6°F-4.7°C 14% 4.0 mph SE6.4 kmh SE 6.0 mph9.7 kmh 29.91 in1012.9 mb 0.00 in0.0 mm 0.00 in0.0 mm 0.00 in0.0 mm
03:50 AM 76.3°F24.6°C 23.6°F-4.7°C 14% 2.0 mph SE3.2 kmh SE 5.0 mph8.0 kmh 29.91 in1012.9 mb 0.00 in0.0 mm 0.00 in0.0 mm 0.00 in0.0 mm
03:55 AM 76.2°F24.6°C 23.5°F-4.7°C 14% 3.0 mph SE4.8 kmh SE 5.0 mph8.0 kmh 29.92 in1013.2 mb 0.00 in0.0 mm 0.00 in0.0 mm 0.00 in0.0 mm
04:00 AM 76.2°F24.6°C 23.5°F-4.7°C 14% 1.0 mph SE1.6 kmh SE 4.0 mph6.4 kmh 29.92 in1013.2 mb 0.00 in0.0 mm 0.00 in0.0 mm 0.00 in0.0 mm
04:05 AM 76.0°F24.4°C 23.3°F-4.8°C 14% 3.0 mph SSE4.8 kmh SSE 3.0 mph4.8 kmh 29.91 in1012.9 mb 0.00 in0.0 mm 0.00 in0.0 mm 0.00 in0.0 mm
04:10 AM 75.8°F24.3°C 23.2°F-4.9°C 14% 2.0 mph SE3.2 kmh SE 4.0 mph6.4 kmh 29.91 in1012.9 mb 0.00 in0.0 mm 0.00 in0.0 mm 0.00 in0.0 mm
04:15 AM 75.6°F24.2°C 23.0°F-5.0°C 14% Calm Calm 3.0 mph4.8 kmh 29.91 in1012.9 mb 0.00 in0.0 mm 0.00 in0.0 mm 0.00 in0.0 mm
04:20 AM 75.4°F24.1°C 22.8°F-5.1°C 14% 1.0 mph SE1.6 kmh SE 3.0 mph4.8 kmh 29.91 in1012.9 mb 0.00 in0.0 mm 0.00 in0.0 mm 0.00 in0.0 mm
04:25 AM 75.3°F24.1°C 22.8°F-5.1°C 14% 3.0 mph SE4.8 kmh SE 4.0 mph6.4 kmh 29.91 in1012.9 mb 0.00 in0.0 mm 0.00 in0.0 mm 0.00 in0.0 mm
04:30 AM 75.2°F24.0°C 22.7°F-5.2°C 14% 3.0 mph SE4.8 kmh SE 4.0 mph6.4 kmh 29.91 in1012.9 mb 0.00 in0.0 mm 0.00 in0.0 mm 0.00 in0.0 mm
04:35 AM 75.1°F23.9°C 22.6°F-5.2°C 14% 2.0 mph SE3.2 kmh SE 5.0 mph8.0 kmh 29.91 in1012.9 mb 0.00 in0.0 mm 0.00 in0.0 mm 0.00 in0.0 mm
04:40 AM 75.0°F23.9°C 22.5°F-5.3°C 14% 4.0 mph SE6.4 kmh SE 5.0 mph8.0 kmh 29.91 in1012.9 mb 0.00 in0.0 mm 0.00 in0.0 mm 0.00 in0.0 mm
04:45 AM 74.9°F23.8°C 22.4°F-5.3°C 14% 2.0 mph SE3.2 kmh SE 5.0 mph8.0 kmh 29.91 in1012.9 mb 0.00 in0.0 mm 0.00 in0.0 mm 0.00 in0.0 mm
04:50 AM 74.8°F23.8°C 22.4°F-5.3°C 14% 2.0 mph SE3.2 kmh SE 4.0 mph6.4 kmh 29.92 in1013.2 mb 0.00 in0.0 mm 0.00 in0.0 mm 0.00 in0.0 mm
04:55 AM 74.8°F23.8°C 22.4°F-5.3°C 14% 3.0 mph SE4.8 kmh SE 5.0 mph8.0 kmh 29.92 in1013.2 mb 0.00 in0.0 mm 0.00 in0.0 mm 0.00 in0.0 mm
05:00 AM 74.7°F23.7°C 22.3°F-5.4°C 14% 3.0 mph SE4.8 kmh SE 5.0 mph8.0 kmh 29.92 in1013.2 mb 0.00 in0.0 mm 0.00 in0.0 mm 0.00 in0.0 mm
05:05 AM 74.7°F23.7°C 22.3°F-5.4°C 14% Calm Calm 3.0 mph4.8 kmh 29.92 in1013.2 mb 0.00 in0.0 mm 0.00 in0.0 mm 0.00 in0.0 mm
05:10 AM 74.6°F23.7°C 22.2°F-5.4°C 14% 1.0 mph SE1.6 kmh SE 2.0 mph3.2 kmh 29.92 in1013.2 mb 0.00 in0.0 mm 0.00 in0.0 mm 0.00 in0.0 mm
05:15 AM 74.5°F23.6°C 22.1°F-5.5°C 14% 2.0 mph SE3.2 kmh SE 3.0 mph4.8 kmh 29.92 in1013.2 mb 0.00 in0.0 mm 0.00 in0.0 mm 0.00 in0.0 mm
05:20 AM 74.6°F23.7°C 22.2°F-5.4°C 14% 1.0 mph SE1.6 kmh SE 4.0 mph6.4 kmh 29.92 in1013.2 mb 0.00 in0.0 mm 0.00 in0.0 mm 0.00 in0.0 mm
05:25 AM 74.7°F23.7°C 22.3°F-5.4°C 14% 2.0 mph SE3.2 kmh SE 3.0 mph4.8 kmh 29.92 in1013.2 mb 0.00 in0.0 mm 0.00 in0.0 mm 0.00 in0.0 mm
05:30 AM 74.8°F23.8°C 22.4°F-5.3°C 14% 3.0 mph SE4.8 kmh SE 3.0 mph4.8 kmh 29.92 in1013.2 mb 0.00 in0.0 mm 0.00 in0.0 mm 0.00 in0.0 mm
05:35 AM 74.9°F23.8°C 22.4°F-5.3°C 14% 1.0 mph SE1.6 kmh SE 2.0 mph3.2 kmh 29.92 in1013.2 mb 0.00 in0.0 mm 0.00 in0.0 mm 0.00 in0.0 mm
05:40 AM 74.8°F23.8°C 22.4°F-5.3°C 14% Calm Calm 1.0 mph1.6 kmh 29.92 in1013.2 mb 0.00 in0.0 mm 0.00 in0.0 mm 0.00 in0.0 mm
05:45 AM 74.7°F23.7°C 23.9°F-4.5°C 15% Calm Calm -- 29.93 in1013.5 mb 0.00 in0.0 mm 0.00 in0.0 mm 0.00 in0.0 mm
05:50 AM 74.5°F23.6°C 26.8°F-2.9°C 17% Calm Calm 1.0 mph1.6 kmh 29.93 in1013.5 mb 0.00 in0.0 mm 0.00 in0.0 mm 0.00 in0.0 mm
05:55 AM 74.1°F23.4°C 26.4°F-3.1°C 17% Calm Calm 1.0 mph1.6 kmh 29.93 in1013.5 mb 0.00 in0.0 mm 0.00 in0.0 mm 0.00 in0.0 mm
06:00 AM 73.5°F23.1°C 24.5°F-4.2°C 16% Calm Calm 3.0 mph4.8 kmh 29.93 in1013.5 mb 0.00 in0.0 mm 0.00 in0.0 mm 0.00 in0.0 mm
06:05 AM 72.9°F22.7°C 25.5°F-3.6°C 17% Calm Calm 1.0 mph1.6 kmh 29.93 in1013.5 mb 0.00 in0.0 mm 0.00 in0.0 mm 0.00 in0.0 mm
06:10 AM 72.6°F22.6°C 26.6°F-3.0°C 18% Calm Calm -- 29.93 in1013.5 mb 0.00 in0.0 mm 0.00 in0.0 mm 0.00 in0.0 mm
06:15 AM 72.4°F22.4°C 27.8°F-2.3°C 19% Calm Calm -- 29.93 in1013.5 mb 0.00 in0.0 mm 0.00 in0.0 mm 0.00 in0.0 mm
06:20 AM 72.3°F22.4°C 28.9°F-1.7°C 20% Calm Calm -- 29.93 in1013.5 mb 0.00 in0.0 mm 0.00 in0.0 mm 0.00 in0.0 mm
06:25 AM 72.4°F22.4°C 30.2°F-1.0°C 21% Calm Calm -- 29.93 in1013.5 mb 0.00 in0.0 mm 0.00 in0.0 mm 0.00 in0.0 mm
06:30 AM 72.6°F22.6°C 30.4°F-0.9°C 21% Calm Calm -- 29.93 in1013.5 mb 0.00 in0.0 mm 0.00 in0.0 mm 0.00 in0.0 mm
06:35 AM 73.3°F22.9°C 31.0°F-0.6°C 21% Calm Calm -- 29.93 in1013.5 mb 0.00 in0.0 mm 0.00 in0.0 mm 0.00 in0.0 mm
06:40 AM 73.8°F23.2°C 31.4°F-0.3°C 21% Calm Calm -- 29.93 in1013.5 mb 0.00 in0.0 mm 0.00 in0.0 mm 0.00 in0.0 mm
06:45 AM 74.4°F23.6°C 29.4°F-1.4°C 19% Calm Calm -- 29.93 in1013.5 mb 0.00 in0.0 mm 0.00 in0.0 mm 0.00 in0.0 mm
06:50 AM 75.2°F24.0°C 28.7°F-1.8°C 18% Calm Calm 1.0 mph1.6 kmh 29.94 in1013.9 mb 0.00 in0.0 mm 0.00 in0.0 mm 0.00 in0.0 mm
06:55 AM 76.2°F24.6°C 28.1°F-2.2°C 17% Calm Calm -- 29.94 in1013.9 mb 0.00 in0.0 mm 0.00 in0.0 mm 0.00 in0.0 mm
07:00 AM 77.1°F25.1°C 30.3°F-0.9°C 18% Calm Calm -- 29.94 in1013.9 mb 0.00 in0.0 mm 0.00 in0.0 mm 0.00 in0.0 mm
07:05 AM 78.3°F25.7°C 28.4°F-2.0°C 16% Calm Calm -- 29.94 in1013.9 mb 0.00 in0.0 mm 0.00 in0.0 mm 0.00 in0.0 mm
07:10 AM 79.5°F26.4°C 29.3°F-1.5°C 16% 1.0 mph SE1.6 kmh SE 3.0 mph4.8 kmh 29.94 in1013.9 mb 0.00 in0.0 mm 0.00 in0.0 mm 0.00 in0.0 mm
07:15 AM 80.7°F27.1°C 30.3°F-0.9°C 16% Calm Calm 3.0 mph4.8 kmh 29.94 in1013.9 mb 0.00 in0.0 mm 0.00 in0.0 mm 0.00 in0.0 mm
07:20 AM 81.7°F27.6°C 29.5°F-1.4°C 15% 5.0 mph SSW8.0 kmh SSW 5.0 mph8.0 kmh 29.94 in1013.9 mb 0.00 in0.0 mm 0.00 in0.0 mm 0.00 in0.0 mm
07:25 AM 82.9°F28.3°C 27.0°F-2.8°C 13% 4.0 mph S6.4 kmh S 6.0 mph9.7 kmh 29.94 in1013.9 mb 0.00 in0.0 mm 0.00 in0.0 mm 0.00 in0.0 mm
07:30 AM 83.8°F28.8°C 25.7°F-3.5°C 12% 5.0 mph S8.0 kmh S 5.0 mph8.0 kmh 29.94 in1013.9 mb 0.00 in0.0 mm 0.00 in0.0 mm 0.00 in0.0 mm
07:35 AM 84.5°F29.2°C 24.2°F-4.3°C 11% 3.0 mph S4.8 kmh S 6.0 mph9.7 kmh 29.94 in1013.9 mb 0.00 in0.0 mm 0.00 in0.0 mm 0.00 in0.0 mm
07:40 AM 85.2°F29.6°C 24.7°F-4.1°C 11% 2.0 mph S3.2 kmh S 5.0 mph8.0 kmh 29.94 in1013.9 mb 0.00 in0.0 mm 0.00 in0.0 mm 0.00 in0.0 mm
07:45 AM 85.9°F29.9°C 23.0°F-5.0°C 10% 3.0 mph SSE4.8 kmh SSE 6.0 mph9.7 kmh 29.94 in1013.9 mb 0.00 in0.0 mm 0.00 in0.0 mm 0.00 in0.0 mm
07:50 AM 86.5°F30.3°C 23.4°F-4.8°C 10% 1.0 mph SSE1.6 kmh SSE 6.0 mph9.7 kmh 29.95 in1014.2 mb 0.00 in0.0 mm 0.00 in0.0 mm 0.00 in0.0 mm
07:55 AM 86.9°F30.5°C 23.7°F-4.6°C 10% 1.0 mph S1.6 kmh S 5.0 mph8.0 kmh 29.95 in1014.2 mb 0.00 in0.0 mm 0.00 in0.0 mm 0.00 in0.0 mm
08:00 AM 87.2°F30.7°C 21.4°F-5.9°C 9% 2.0 mph S3.2 kmh S 5.0 mph8.0 kmh 29.95 in1014.2 mb 0.00 in0.0 mm 0.00 in0.0 mm 0.00 in0.0 mm
08:05 AM 87.6°F30.9°C 21.7°F-5.7°C 9% 4.0 mph S6.4 kmh S 6.0 mph9.7 kmh 29.95 in1014.2 mb 0.00 in0.0 mm 0.00 in0.0 mm 0.00 in0.0 mm
08:10 AM 88.0°F31.1°C 22.0°F-5.6°C 9% 3.0 mph S4.8 kmh S 7.0 mph11.3 kmh 29.95 in1014.2 mb 0.00 in0.0 mm 0.00 in0.0 mm 0.00 in0.0 mm
08:15 AM 88.4°F31.3°C 22.3°F-5.4°C 9% 2.0 mph SSE3.2 kmh SSE 7.0 mph11.3 kmh 29.95 in1014.2 mb 0.00 in0.0 mm 0.00 in0.0 mm 0.00 in0.0 mm
08:20 AM 88.8°F31.6°C 22.6°F-5.2°C 9% 5.0 mph S8.0 kmh S 8.0 mph12.9 kmh 29.95 in1014.2 mb 0.00 in0.0 mm 0.00 in0.0 mm 0.00 in0.0 mm
08:25 AM 89.1°F31.7°C 20.1°F-6.6°C 8% 3.0 mph SSE4.8 kmh SSE 6.0 mph9.7 kmh 29.95 in1014.2 mb 0.00 in0.0 mm 0.00 in0.0 mm 0.00 in0.0 mm
08:30 AM 89.4°F31.9°C 23.1°F-4.9°C 9% 6.0 mph SSW9.7 kmh SSW 6.0 mph9.7 kmh 29.95 in1014.2 mb 0.00 in0.0 mm 0.00 in0.0 mm 0.00 in0.0 mm
08:35 AM 89.8°F32.1°C 20.6°F-6.3°C 8% 7.0 mph S11.3 kmh S 8.0 mph12.9 kmh 29.95 in1014.2 mb 0.00 in0.0 mm 0.00 in0.0 mm 0.00 in0.0 mm
08:40 AM 90.1°F32.3°C 20.8°F-6.2°C 8% 2.0 mph SE3.2 kmh SE 8.0 mph12.9 kmh 29.95 in1014.2 mb 0.00 in0.0 mm 0.00 in0.0 mm 0.00 in0.0 mm
08:45 AM 90.4°F32.4°C 21.0°F-6.1°C 8% Calm Calm 7.0 mph11.3 kmh 29.95 in1014.2 mb 0.00 in0.0 mm 0.00 in0.0 mm 0.00 in0.0 mm
08:50 AM 90.5°F32.5°C 21.1°F-6.1°C 8% 2.0 mph S3.2 kmh S 5.0 mph8.0 kmh 29.95 in1014.2 mb 0.00 in0.0 mm 0.00 in0.0 mm 0.00 in0.0 mm
08:55 AM 90.9°F32.7°C 21.4°F-5.9°C 8% 3.0 mph SSW4.8 kmh SSW 6.0 mph9.7 kmh 29.95 in1014.2 mb 0.00 in0.0 mm 0.00 in0.0 mm 0.00 in0.0 mm
09:00 AM 91.2°F32.9°C 21.6°F-5.8°C 8% 5.0 mph SE8.0 kmh SE 8.0 mph12.9 kmh 29.95 in1014.2 mb 0.00 in0.0 mm 0.00 in0.0 mm 0.00 in0.0 mm
09:05 AM 91.2°F32.9°C 21.6°F-5.8°C 8% 5.0 mph S8.0 kmh S 9.0 mph14.5 kmh 29.95 in1014.2 mb 0.00 in0.0 mm 0.00 in0.0 mm 0.00 in0.0 mm
09:10 AM 91.5°F33.1°C 21.9°F-5.6°C 8% 7.0 mph SSW11.3 kmh SSW 7.0 mph11.3 kmh 29.95 in1014.2 mb 0.00 in0.0 mm 0.00 in0.0 mm 0.00 in0.0 mm
09:15 AM 91.8°F33.2°C 18.9°F-7.3°C 7% 9.0 mph S14.5 kmh S 9.0 mph14.5 kmh 29.95 in1014.2 mb 0.00 in0.0 mm 0.00 in0.0 mm 0.00 in0.0 mm
09:20 AM 92.0°F33.3°C 19.1°F-7.2°C 7% 6.0 mph SSW9.7 kmh SSW 9.0 mph14.5 kmh 29.95 in1014.2 mb 0.00 in0.0 mm 0.00 in0.0 mm 0.00 in0.0 mm
09:25 AM 92.4°F33.6°C 19.4°F-7.0°C 7% 3.0 mph WSW4.8 kmh WSW 8.0 mph12.9 kmh 29.95 in1014.2 mb 0.00 in0.0 mm 0.00 in0.0 mm 0.00 in0.0 mm
09:30 AM 92.4°F33.6°C 19.4°F-7.0°C 7% 4.0 mph SSE6.4 kmh SSE 5.0 mph8.0 kmh 29.95 in1014.2 mb 0.00 in0.0 mm 0.00 in0.0 mm 0.00 in0.0 mm
09:35 AM 92.7°F33.7°C 19.6°F-6.9°C 7% 2.0 mph SSE3.2 kmh SSE 7.0 mph11.3 kmh 29.95 in1014.2 mb 0.00 in0.0 mm 0.00 in0.0 mm 0.00 in0.0 mm
09:40 AM 93.1°F33.9°C 19.9°F-6.7°C 7% 6.0 mph S9.7 kmh S 9.0 mph14.5 kmh 29.95 in1014.2 mb 0.00 in0.0 mm 0.00 in0.0 mm 0.00 in0.0 mm
09:45 AM 93.4°F34.1°C 20.1°F-6.6°C 7% 2.0 mph SSW3.2 kmh SSW 7.0 mph11.3 kmh 29.95 in1014.2 mb 0.00 in0.0 mm 0.00 in0.0 mm 0.00 in0.0 mm
09:50 AM 93.9°F34.4°C 20.5°F-6.4°C 7% 3.0 mph S4.8 kmh S 10.0 mph16.1 kmh 29.95 in1014.2 mb 0.00 in0.0 mm 0.00 in0.0 mm 0.00 in0.0 mm
09:55 AM 94.4°F34.7°C 20.8°F-6.2°C 7% 2.0 mph SW3.2 kmh SW 7.0 mph11.3 kmh 29.95 in1014.2 mb 0.00 in0.0 mm 0.00 in0.0 mm 0.00 in0.0 mm
10:00 AM 94.6°F34.8°C 21.0°F-6.1°C 7% 2.0 mph SW3.2 kmh SW 8.0 mph12.9 kmh 29.95 in1014.2 mb 0.00 in0.0 mm 0.00 in0.0 mm 0.00 in0.0 mm
10:05 AM 94.5°F34.7°C 20.9°F-6.2°C 7% 3.0 mph SSE4.8 kmh SSE 7.0 mph11.3 kmh 29.95 in1014.2 mb 0.00 in0.0 mm 0.00 in0.0 mm 0.00 in0.0 mm
10:10 AM 94.9°F34.9°C 21.2°F-6.0°C 7% 1.0 mph SSE1.6 kmh SSE 7.0 mph11.3 kmh 29.94 in1013.9 mb 0.00 in0.0 mm 0.00 in0.0 mm 0.00 in0.0 mm
10:15 AM 95.1°F35.1°C 21.3°F-5.9°C 7% 5.0 mph S8.0 kmh S 9.0 mph14.5 kmh 29.95 in1014.2 mb 0.00 in0.0 mm 0.00 in0.0 mm 0.00 in0.0 mm
10:20 AM 95.3°F35.2°C 21.5°F-5.8°C 7% 4.0 mph SW6.4 kmh SW 8.0 mph12.9 kmh 29.95 in1014.2 mb 0.00 in0.0 mm 0.00 in0.0 mm 0.00 in0.0 mm
10:25 AM 95.4°F35.2°C 21.5°F-5.8°C 7% 1.0 mph SW1.6 kmh SW 8.0 mph12.9 kmh 29.94 in1013.9 mb 0.00 in0.0 mm 0.00 in0.0 mm 0.00 in0.0 mm
10:30 AM 95.5°F35.3°C 21.6°F-5.8°C 7% 6.0 mph SW9.7 kmh SW 6.0 mph9.7 kmh 29.95 in1014.2 mb 0.00 in0.0 mm 0.00 in0.0 mm 0.00 in0.0 mm
10:35 AM 95.7°F35.4°C 21.8°F-5.7°C 7% 6.0 mph S9.7 kmh S 8.0 mph12.9 kmh 29.95 in1014.2 mb 0.00 in0.0 mm 0.00 in0.0 mm 0.00 in0.0 mm
10:40 AM 96.0°F35.6°C 22.0°F-5.6°C 7% 4.0 mph S6.4 kmh S 10.0 mph16.1 kmh 29.94 in1013.9 mb 0.00 in0.0 mm 0.00 in0.0 mm 0.00 in0.0 mm
10:45 AM 96.1°F35.6°C 18.4°F-7.6°C 6% 3.0 mph SW4.8 kmh SW 7.0 mph11.3 kmh 29.95 in1014.2 mb 0.00 in0.0 mm 0.00 in0.0 mm 0.00 in0.0 mm
10:50 AM 96.1°F35.6°C 22.0°F-5.6°C 7% 8.0 mph S12.9 kmh S 11.0 mph17.7 kmh 29.95 in1014.2 mb 0.00 in0.0 mm 0.00 in0.0 mm 0.00 in0.0 mm
10:55 AM 96.1°F35.6°C 22.0°F-5.6°C 7% 3.0 mph SW4.8 kmh SW 11.0 mph17.7 kmh 29.94 in1013.9 mb 0.00 in0.0 mm 0.00 in0.0 mm 0.00 in0.0 mm
11:00 AM 96.2°F35.7°C 18.5°F-7.5°C 6% 5.0 mph SE8.0 kmh SE 10.0 mph16.1 kmh 29.94 in1013.9 mb 0.00 in0.0 mm 0.00 in0.0 mm 0.00 in0.0 mm
11:05 AM 96.2°F35.7°C 18.5°F-7.5°C 6% 7.0 mph SSW11.3 kmh SSW 9.0 mph14.5 kmh 29.94 in1013.9 mb 0.00 in0.0 mm 0.00 in0.0 mm 0.00 in0.0 mm
11:10 AM 96.4°F35.8°C 18.6°F-7.4°C 6% 5.0 mph SSW8.0 kmh SSW 9.0 mph14.5 kmh 29.94 in1013.9 mb 0.00 in0.0 mm 0.00 in0.0 mm 0.00 in0.0 mm
11:15 AM 97.0°F36.1°C 19.1°F-7.2°C 6% 6.0 mph WSW9.7 kmh WSW 9.0 mph14.5 kmh 29.94 in1013.9 mb 0.00 in0.0 mm 0.00 in0.0 mm 0.00 in0.0 mm
11:20 AM 96.5°F35.8°C 18.7°F-7.4°C 6% 5.0 mph WSW8.0 kmh WSW 9.0 mph14.5 kmh 29.94 in1013.9 mb 0.00 in0.0 mm 0.00 in0.0 mm 0.00 in0.0 mm
11:25 AM 96.7°F35.9°C 18.9°F-7.3°C 6% 7.0 mph SW11.3 kmh SW 10.0 mph16.1 kmh 29.94 in1013.9 mb 0.00 in0.0 mm 0.00 in0.0 mm 0.00 in0.0 mm
11:30 AM 96.9°F36.1°C 19.0°F-7.2°C 6% 6.0 mph S9.7 kmh S 11.0 mph17.7 kmh 29.94 in1013.9 mb 0.00 in0.0 mm 0.00 in0.0 mm 0.00 in0.0 mm
11:35 AM 97.5°F36.4°C 15.2°F-9.3°C 5% 5.0 mph S8.0 kmh S 9.0 mph14.5 kmh 29.94 in1013.9 mb 0.00 in0.0 mm 0.00 in0.0 mm 0.00 in0.0 mm
11:40 AM 97.6°F36.4°C 15.3°F-9.3°C 5% 5.0 mph SW8.0 kmh SW 10.0 mph16.1 kmh 29.93 in1013.5 mb 0.00 in0.0 mm 0.00 in0.0 mm 0.00 in0.0 mm
11:45 AM 97.4°F36.3°C 15.1°F-9.4°C 5% 7.0 mph SSW11.3 kmh SSW 10.0 mph16.1 kmh 29.94 in1013.9 mb 0.00 in0.0 mm 0.00 in0.0 mm 0.00 in0.0 mm
11:50 AM 97.6°F36.4°C 15.3°F-9.3°C 5% 3.0 mph S4.8 kmh S 11.0 mph17.7 kmh 29.93 in1013.5 mb 0.00 in0.0 mm 0.00 in0.0 mm 0.00 in0.0 mm
11:55 AM 97.6°F36.4°C 15.3°F-9.3°C 5% 3.0 mph S4.8 kmh S 7.0 mph11.3 kmh 29.93 in1013.5 mb 0.00 in0.0 mm 0.00 in0.0 mm 0.00 in0.0 mm
12:00 PM 98.2°F36.8°C 15.7°F-9.1°C 5% 2.0 mph S3.2 kmh S 6.0 mph9.7 kmh 29.93 in1013.5 mb 0.00 in0.0 mm 0.00 in0.0 mm 0.00 in0.0 mm
12:05 PM 98.5°F36.9°C 15.9°F-8.9°C 5% 5.0 mph S8.0 kmh S 8.0 mph12.9 kmh 29.93 in1013.5 mb 0.00 in0.0 mm 0.00 in0.0 mm 0.00 in0.0 mm
12:10 PM 98.6°F37.0°C 16.0°F-8.9°C 5% 4.0 mph SSW6.4 kmh SSW 9.0 mph14.5 kmh 29.93 in1013.5 mb 0.00 in0.0 mm 0.00 in0.0 mm 0.00 in0.0 mm
12:15 PM 99.1°F37.3°C 16.3°F-8.7°C 5% 3.0 mph SSW4.8 kmh SSW 7.0 mph11.3 kmh 29.93 in1013.5 mb 0.00 in0.0 mm 0.00 in0.0 mm 0.00 in0.0 mm
12:20 PM 99.5°F37.5°C 16.6°F-8.6°C 5% 3.0 mph SSE4.8 kmh SSE 7.0 mph11.3 kmh 29.93 in1013.5 mb 0.00 in0.0 mm 0.00 in0.0 mm 0.00 in0.0 mm
12:25 PM 99.3°F37.4°C 16.5°F-8.6°C 5% 4.0 mph W6.4 kmh W 11.0 mph17.7 kmh 29.92 in1013.2 mb 0.00 in0.0 mm 0.00 in0.0 mm 0.00 in0.0 mm
12:30 PM 99.5°F37.5°C 16.6°F-8.6°C 5% 4.0 mph W6.4 kmh W 8.0 mph12.9 kmh 29.92 in1013.2 mb 0.00 in0.0 mm 0.00 in0.0 mm 0.00 in0.0 mm
12:35 PM 99.9°F37.7°C 21.1°F-6.1°C 6% 8.0 mph SSW12.9 kmh SSW 12.0 mph19.3 kmh 29.92 in1013.2 mb 0.00 in0.0 mm 0.00 in0.0 mm 0.00 in0.0 mm
12:40 PM 99.6°F37.6°C 20.9°F-6.2°C 6% 3.0 mph SW4.8 kmh SW 12.0 mph19.3 kmh 29.92 in1013.2 mb 0.00 in0.0 mm 0.00 in0.0 mm 0.00 in0.0 mm
12:45 PM 99.4°F37.4°C 20.8°F-6.2°C 6% 2.0 mph SW3.2 kmh SW 8.0 mph12.9 kmh 29.92 in1013.2 mb 0.00 in0.0 mm 0.00 in0.0 mm 0.00 in0.0 mm
12:50 PM 100.3°F37.9°C 21.4°F-5.9°C 6% 9.0 mph SW14.5 kmh SW 11.0 mph17.7 kmh 29.91 in1012.9 mb 0.00 in0.0 mm 0.00 in0.0 mm 0.00 in0.0 mm
12:55 PM 100.7°F38.2°C 21.7°F-5.7°C 6% 5.0 mph W8.0 kmh W 8.0 mph12.9 kmh 29.91 in1012.9 mb 0.00 in0.0 mm 0.00 in0.0 mm 0.00 in0.0 mm
01:00 PM 100.8°F38.2°C 21.8°F-5.7°C 6% 3.0 mph SSW4.8 kmh SSW 9.0 mph14.5 kmh 29.91 in1012.9 mb 0.00 in0.0 mm 0.00 in0.0 mm 0.00 in0.0 mm
01:05 PM 101.0°F38.3°C 21.9°F-5.6°C 6% 6.0 mph 9.7 kmh 9.0 mph14.5 kmh 29.91 in1012.9 mb 0.00 in0.0 mm 0.00 in0.0 mm 0.00 in0.0 mm
01:10 PM 101.0°F38.3°C 21.9°F-5.6°C 6% 1.0 mph SSE1.6 kmh SSE 11.0 mph17.7 kmh 29.90 in1012.5 mb 0.00 in0.0 mm 0.00 in0.0 mm 0.00 in0.0 mm
01:15 PM 101.4°F38.6°C 22.2°F-5.4°C 6% 5.0 mph W8.0 kmh W 8.0 mph12.9 kmh 29.90 in1012.5 mb 0.00 in0.0 mm 0.00 in0.0 mm 0.00 in0.0 mm
01:20 PM 100.8°F38.2°C 21.8°F-5.7°C 6% 3.0 mph SW4.8 kmh SW 11.0 mph17.7 kmh 29.90 in1012.5 mb 0.00 in0.0 mm 0.00 in0.0 mm 0.00 in0.0 mm
01:25 PM 100.9°F38.3°C 21.8°F-5.7°C 6% 5.0 mph WSW8.0 kmh WSW 8.0 mph12.9 kmh 29.90 in1012.5 mb 0.00 in0.0 mm 0.00 in0.0 mm 0.00 in0.0 mm
01:30 PM 100.7°F38.2°C 21.7°F-5.7°C 6% 7.0 mph WSW11.3 kmh WSW 9.0 mph14.5 kmh 29.90 in1012.5 mb 0.00 in0.0 mm 0.00 in0.0 mm 0.00 in0.0 mm
01:35 PM 100.3°F37.9°C 21.4°F-5.9°C 6% 3.0 mph SSW4.8 kmh SSW 15.0 mph24.1 kmh 29.89 in1012.2 mb 0.00 in0.0 mm 0.00 in0.0 mm 0.00 in0.0 mm
01:40 PM 100.3°F37.9°C 25.1°F-3.8°C 7% 4.0 mph W6.4 kmh W 8.0 mph12.9 kmh 29.89 in1012.2 mb 0.00 in0.0 mm 0.00 in0.0 mm 0.00 in0.0 mm
01:45 PM 100.6°F38.1°C 21.6°F-5.8°C 6% 4.0 mph S6.4 kmh S 7.0 mph11.3 kmh 29.89 in1012.2 mb 0.00 in0.0 mm 0.00 in0.0 mm 0.00 in0.0 mm
01:50 PM 101.0°F38.3°C 21.9°F-5.6°C 6% 4.0 mph S6.4 kmh S 10.0 mph16.1 kmh 29.89 in1012.2 mb 0.00 in0.0 mm 0.00 in0.0 mm 0.00 in0.0 mm
01:55 PM 101.1°F38.4°C 22.0°F-5.6°C 6% 3.0 mph SW4.8 kmh SW 10.0 mph16.1 kmh 29.88 in1011.9 mb 0.00 in0.0 mm 0.00 in0.0 mm 0.00 in0.0 mm
02:00 PM 101.3°F38.5°C 22.1°F-5.5°C 6% 5.0 mph S8.0 kmh S 11.0 mph17.7 kmh 29.88 in1011.9 mb 0.00 in0.0 mm 0.00 in0.0 mm 0.00 in0.0 mm
02:05 PM 101.5°F38.6°C 22.3°F-5.4°C 6% 1.0 mph ESE1.6 kmh ESE 8.0 mph12.9 kmh 29.88 in1011.9 mb 0.00 in0.0 mm 0.00 in0.0 mm 0.00 in0.0 mm
02:10 PM 101.6°F38.7°C 22.3°F-5.4°C 6% 11.0 mph 17.7 kmh 12.0 mph19.3 kmh 29.88 in1011.9 mb 0.00 in0.0 mm 0.00 in0.0 mm 0.00 in0.0 mm
02:15 PM 100.9°F38.3°C 21.8°F-5.7°C 6% 3.0 mph WNW4.8 kmh WNW 12.0 mph19.3 kmh 29.88 in1011.9 mb 0.00 in0.0 mm 0.00 in0.0 mm 0.00 in0.0 mm
02:20 PM 100.8°F38.2°C 21.8°F-5.7°C 6% 5.0 mph SSW8.0 kmh SSW 12.0 mph19.3 kmh 29.88 in1011.9 mb 0.00 in0.0 mm 0.00 in0.0 mm 0.00 in0.0 mm
02:25 PM 100.8°F38.2°C 21.8°F-5.7°C 6% 3.0 mph SW4.8 kmh SW 8.0 mph12.9 kmh 29.87 in1011.5 mb 0.00 in0.0 mm 0.00 in0.0 mm 0.00 in0.0 mm
02:30 PM 101.3°F38.5°C 22.1°F-5.5°C 6% 5.0 mph WSW8.0 kmh WSW 8.0 mph12.9 kmh 29.88 in1011.9 mb 0.00 in0.0 mm 0.00 in0.0 mm 0.00 in0.0 mm
02:35 PM 101.6°F38.7°C 22.3°F-5.4°C 6% 7.0 mph WSW11.3 kmh WSW 9.0 mph14.5 kmh 29.87 in1011.5 mb 0.00 in0.0 mm 0.00 in0.0 mm 0.00 in0.0 mm
02:40 PM 101.0°F38.3°C 21.9°F-5.6°C 6% 2.0 mph WSW3.2 kmh WSW 11.0 mph17.7 kmh 29.87 in1011.5 mb 0.00 in0.0 mm 0.00 in0.0 mm 0.00 in0.0 mm
02:45 PM 100.6°F38.1°C 21.6°F-5.8°C 6% 8.0 mph S12.9 kmh S 10.0 mph16.1 kmh 29.87 in1011.5 mb 0.00 in0.0 mm 0.00 in0.0 mm 0.00 in0.0 mm
02:50 PM 100.9°F38.3°C 21.8°F-5.7°C 6% 5.0 mph WSW8.0 kmh WSW 13.0 mph20.9 kmh 29.87 in1011.5 mb 0.00 in0.0 mm 0.00 in0.0 mm 0.00 in0.0 mm
02:55 PM 101.2°F38.4°C 22.0°F-5.6°C 6% 4.0 mph SW6.4 kmh SW 15.0 mph24.1 kmh 29.87 in1011.5 mb 0.00 in0.0 mm 0.00 in0.0 mm 0.00 in0.0 mm
03:00 PM 101.2°F38.4°C 22.0°F-5.6°C 6% 6.0 mph W9.7 kmh W 10.0 mph16.1 kmh 29.86 in1011.2 mb 0.00 in0.0 mm 0.00 in0.0 mm 0.00 in0.0 mm
03:05 PM 101.2°F38.4°C 22.0°F-5.6°C 6% 7.0 mph 11.3 kmh 13.0 mph20.9 kmh 29.86 in1011.2 mb 0.00 in0.0 mm 0.00 in0.0 mm 0.00 in0.0 mm
03:10 PM 101.3°F38.5°C 22.1°F-5.5°C 6% 7.0 mph WSW11.3 kmh WSW 11.0 mph17.7 kmh 29.86 in1011.2 mb 0.00 in0.0 mm 0.00 in0.0 mm 0.00 in0.0 mm
03:15 PM 100.9°F38.3°C 21.8°F-5.7°C 6% 3.0 mph WNW4.8 kmh WNW 12.0 mph19.3 kmh 29.86 in1011.2 mb 0.00 in0.0 mm 0.00 in0.0 mm 0.00 in0.0 mm
03:20 PM 100.7°F38.2°C 21.7°F-5.7°C 6% 6.0 mph W9.7 kmh W 11.0 mph17.7 kmh 29.86 in1011.2 mb 0.00 in0.0 mm 0.00 in0.0 mm 0.00 in0.0 mm
03:25 PM 100.7°F38.2°C 21.7°F-5.7°C 6% 5.0 mph SW8.0 kmh SW 7.0 mph11.3 kmh 29.86 in1011.2 mb 0.00 in0.0 mm 0.00 in0.0 mm 0.00 in0.0 mm
03:30 PM 101.0°F38.3°C 21.9°F-5.6°C 6% 7.0 mph SW11.3 kmh SW 13.0 mph20.9 kmh 29.85 in1010.8 mb 0.00 in0.0 mm 0.00 in0.0 mm 0.00 in0.0 mm
03:35 PM 101.3°F38.5°C 22.1°F-5.5°C 6% 7.0 mph WSW11.3 kmh WSW 11.0 mph17.7 kmh 29.85 in1010.8 mb 0.00 in0.0 mm 0.00 in0.0 mm 0.00 in0.0 mm
03:40 PM 101.4°F38.6°C 22.2°F-5.4°C 6% 1.0 mph S1.6 kmh S 7.0 mph11.3 kmh 29.85 in1010.8 mb 0.00 in0.0 mm 0.00 in0.0 mm 0.00 in0.0 mm
03:45 PM 101.9°F38.8°C 18.3°F-7.6°C 5% Calm Calm 7.0 mph11.3 kmh 29.85 in1010.8 mb 0.00 in0.0 mm 0.00 in0.0 mm 0.00 in0.0 mm
03:50 PM 102.1°F38.9°C 22.7°F-5.2°C 6% 9.0 mph WSW14.5 kmh WSW 11.0 mph17.7 kmh 29.85 in1010.8 mb 0.00 in0.0 mm 0.00 in0.0 mm 0.00 in0.0 mm
03:55 PM 101.6°F38.7°C 22.3°F-5.4°C 6% 5.0 mph WSW8.0 kmh WSW 11.0 mph17.7 kmh 29.85 in1010.8 mb 0.00 in0.0 mm 0.00 in0.0 mm 0.00 in0.0 mm
04:00 PM 101.4°F38.6°C 22.2°F-5.4°C 6% 7.0 mph SW11.3 kmh SW 9.0 mph14.5 kmh 29.85 in1010.8 mb 0.00 in0.0 mm 0.00 in0.0 mm 0.00 in0.0 mm
04:05 PM 101.3°F38.5°C 22.1°F-5.5°C 6% 8.0 mph WSW12.9 kmh WSW 7.0 mph11.3 kmh 29.84 in1010.5 mb 0.00 in0.0 mm 0.00 in0.0 mm 0.00 in0.0 mm
04:10 PM 101.2°F38.4°C 22.0°F-5.6°C 6% 2.0 mph NW3.2 kmh NW 11.0 mph17.7 kmh 29.84 in1010.5 mb 0.00 in0.0 mm 0.00 in0.0 mm 0.00 in0.0 mm
04:15 PM 101.8°F38.8°C 22.5°F-5.3°C 6% 2.0 mph SW3.2 kmh SW 7.0 mph11.3 kmh 29.84 in1010.5 mb 0.00 in0.0 mm 0.00 in0.0 mm 0.00 in0.0 mm
04:20 PM 101.9°F38.8°C 22.5°F-5.3°C 6% 7.0 mph WSW11.3 kmh WSW 14.0 mph22.5 kmh 29.84 in1010.5 mb 0.00 in0.0 mm 0.00 in0.0 mm 0.00 in0.0 mm
04:25 PM 101.3°F38.5°C 22.1°F-5.5°C 6% 4.0 mph N6.4 kmh N 8.0 mph12.9 kmh 29.84 in1010.5 mb 0.00 in0.0 mm 0.00 in0.0 mm 0.00 in0.0 mm
04:30 PM 101.0°F38.3°C 21.9°F-5.6°C 6% 5.0 mph SW8.0 kmh SW 11.0 mph17.7 kmh 29.84 in1010.5 mb 0.00 in0.0 mm 0.00 in0.0 mm 0.00 in0.0 mm
04:35 PM 101.0°F38.3°C 21.9°F-5.6°C 6% 5.0 mph SSW8.0 kmh SSW 9.0 mph14.5 kmh 29.84 in1010.5 mb 0.00 in0.0 mm 0.00 in0.0 mm 0.00 in0.0 mm
04:40 PM 101.6°F38.7°C 22.3°F-5.4°C 6% 4.0 mph SW6.4 kmh SW 9.0 mph14.5 kmh 29.83 in1010.2 mb 0.00 in0.0 mm 0.00 in0.0 mm 0.00 in0.0 mm
04:45 PM 101.6°F38.7°C 22.3°F-5.4°C 6% 7.0 mph WSW11.3 kmh WSW 11.0 mph17.7 kmh 29.83 in1010.2 mb 0.00 in0.0 mm 0.00 in0.0 mm 0.00 in0.0 mm
04:50 PM 101.2°F38.4°C 22.0°F-5.6°C 6% 4.0 mph WSW6.4 kmh WSW 10.0 mph16.1 kmh 29.83 in1010.2 mb 0.00 in0.0 mm 0.00 in0.0 mm 0.00 in0.0 mm
04:55 PM 101.0°F38.3°C 21.9°F-5.6°C 6% 2.0 mph W3.2 kmh W 6.0 mph9.7 kmh 29.83 in1010.2 mb 0.00 in0.0 mm 0.00 in0.0 mm 0.00 in0.0 mm
05:00 PM 101.1°F38.4°C 22.0°F-5.6°C 6% 3.0 mph NW4.8 kmh NW 5.0 mph8.0 kmh 29.83 in1010.2 mb 0.00 in0.0 mm 0.00 in0.0 mm 0.00 in0.0 mm
05:05 PM 101.1°F38.4°C 22.0°F-5.6°C 6% 4.0 mph W6.4 kmh W 10.0 mph16.1 kmh 29.83 in1010.2 mb 0.00 in0.0 mm 0.00 in0.0 mm 0.00 in0.0 mm
05:10 PM 100.6°F38.1°C 21.6°F-5.8°C 6% 3.0 mph SW4.8 kmh SW 9.0 mph14.5 kmh 29.83 in1010.2 mb 0.00 in0.0 mm 0.00 in0.0 mm 0.00 in0.0 mm
05:15 PM 100.7°F38.2°C 21.7°F-5.7°C 6% 3.0 mph W4.8 kmh W 5.0 mph8.0 kmh 29.82 in1009.8 mb 0.00 in0.0 mm 0.00 in0.0 mm 0.00 in0.0 mm
05:20 PM 100.6°F38.1°C 17.4°F-8.1°C 5% 6.0 mph W9.7 kmh W 11.0 mph17.7 kmh 29.82 in1009.8 mb 0.00 in0.0 mm 0.00 in0.0 mm 0.00 in0.0 mm
05:25 PM 100.4°F38.0°C 17.2°F-8.2°C 5% 5.0 mph WSW8.0 kmh WSW 6.0 mph9.7 kmh 29.82 in1009.8 mb 0.00 in0.0 mm 0.00 in0.0 mm 0.00 in0.0 mm
05:30 PM 100.2°F37.9°C 17.1°F-8.3°C 5% 3.0 mph SSW4.8 kmh SSW 9.0 mph14.5 kmh 29.82 in1009.8 mb 0.00 in0.0 mm 0.00 in0.0 mm 0.00 in0.0 mm
05:35 PM 100.3°F37.9°C 17.2°F-8.2°C 5% 3.0 mph SSW4.8 kmh SSW 5.0 mph8.0 kmh 29.82 in1009.8 mb 0.00 in0.0 mm 0.00 in0.0 mm 0.00 in0.0 mm
05:40 PM 100.5°F38.1°C 17.3°F-8.2°C 5% 5.0 mph WSW8.0 kmh WSW 13.0 mph20.9 kmh 29.82 in1009.8 mb 0.00 in0.0 mm 0.00 in0.0 mm 0.00 in0.0 mm
05:45 PM 100.5°F38.1°C 17.3°F-8.2°C 5% 3.0 mph WSW4.8 kmh WSW 9.0 mph14.5 kmh 29.82 in1009.8 mb 0.00 in0.0 mm 0.00 in0.0 mm 0.00 in0.0 mm
05:50 PM 100.4°F38.0°C 17.2°F-8.2°C 5% Calm Calm 5.0 mph8.0 kmh 29.82 in1009.8 mb 0.00 in0.0 mm 0.00 in0.0 mm 0.00 in0.0 mm
05:55 PM 100.6°F38.1°C 17.4°F-8.1°C 5% 2.0 mph W3.2 kmh W 4.0 mph6.4 kmh 29.82 in1009.8 mb 0.00 in0.0 mm 0.00 in0.0 mm 0.00 in0.0 mm
06:00 PM 100.5°F38.1°C 17.3°F-8.2°C 5% 3.0 mph S4.8 kmh S 7.0 mph11.3 kmh 29.82 in1009.8 mb 0.00 in0.0 mm 0.00 in0.0 mm 0.00 in0.0 mm
06:05 PM 100.3°F37.9°C 17.2°F-8.2°C 5% 6.0 mph W9.7 kmh W 9.0 mph14.5 kmh 29.82 in1009.8 mb 0.00 in0.0 mm 0.00 in0.0 mm 0.00 in0.0 mm
06:10 PM 100.0°F37.8°C 16.9°F-8.4°C 5% 3.0 mph WNW4.8 kmh WNW 13.0 mph20.9 kmh 29.82 in1009.8 mb 0.00 in0.0 mm 0.00 in0.0 mm 0.00 in0.0 mm
06:15 PM 99.7°F37.6°C 16.7°F-8.5°C 5% 5.0 mph WSW8.0 kmh WSW 8.0 mph12.9 kmh 29.82 in1009.8 mb 0.00 in0.0 mm 0.00 in0.0 mm 0.00 in0.0 mm
06:20 PM 99.6°F37.6°C 16.7°F-8.5°C 5% 8.0 mph SW12.9 kmh SW 12.0 mph19.3 kmh 29.82 in1009.8 mb 0.00 in0.0 mm 0.00 in0.0 mm 0.00 in0.0 mm
06:25 PM 99.3°F37.4°C 16.5°F-8.6°C 5% 3.0 mph SW4.8 kmh SW 9.0 mph14.5 kmh 29.82 in1009.8 mb 0.00 in0.0 mm 0.00 in0.0 mm 0.00 in0.0 mm
06:30 PM 99.2°F37.3°C 16.4°F-8.7°C 5% 6.0 mph WSW9.7 kmh WSW 7.0 mph11.3 kmh 29.82 in1009.8 mb 0.00 in0.0 mm 0.00 in0.0 mm 0.00 in0.0 mm
06:35 PM 99.0°F37.2°C 20.5°F-6.4°C 6% 3.0 mph WSW4.8 kmh WSW 6.0 mph9.7 kmh 29.82 in1009.8 mb 0.00 in0.0 mm 0.00 in0.0 mm 0.00 in0.0 mm
06:40 PM 98.9°F37.2°C 20.4°F-6.4°C 6% 5.0 mph SW8.0 kmh SW 8.0 mph12.9 kmh 29.82 in1009.8 mb 0.00 in0.0 mm 0.00 in0.0 mm 0.00 in0.0 mm
06:45 PM 98.7°F37.1°C 20.3°F-6.5°C 6% 4.0 mph SW6.4 kmh SW 5.0 mph8.0 kmh 29.82 in1009.8 mb 0.00 in0.0 mm 0.00 in0.0 mm 0.00 in0.0 mm
06:50 PM 98.5°F36.9°C 20.1°F-6.6°C 6% 3.0 mph W4.8 kmh W 7.0 mph11.3 kmh 29.82 in1009.8 mb 0.00 in0.0 mm 0.00 in0.0 mm 0.00 in0.0 mm
06:55 PM 98.2°F36.8°C 19.9°F-6.7°C 6% 4.0 mph 6.4 kmh 8.0 mph12.9 kmh 29.82 in1009.8 mb 0.00 in0.0 mm 0.00 in0.0 mm 0.00 in0.0 mm
07:00 PM 97.9°F36.6°C 19.7°F-6.8°C 6% 4.0 mph WNW6.4 kmh WNW 6.0 mph9.7 kmh 29.82 in1009.8 mb 0.00 in0.0 mm 0.00 in0.0 mm 0.00 in0.0 mm
07:05 PM 97.6°F36.4°C 19.5°F-6.9°C 6% 1.0 mph W1.6 kmh W 4.0 mph6.4 kmh 29.82 in1009.8 mb 0.00 in0.0 mm 0.00 in0.0 mm 0.00 in0.0 mm
07:10 PM 97.3°F36.3°C 19.3°F-7.1°C 6% 2.0 mph W3.2 kmh W 3.0 mph4.8 kmh 29.82 in1009.8 mb 0.00 in0.0 mm 0.00 in0.0 mm 0.00 in0.0 mm
07:15 PM 97.0°F36.1°C 19.1°F-7.2°C 6% 3.0 mph WSW4.8 kmh WSW 5.0 mph8.0 kmh 29.82 in1009.8 mb 0.00 in0.0 mm 0.00 in0.0 mm 0.00 in0.0 mm
07:20 PM 96.7°F35.9°C 18.9°F-7.3°C 6% 3.0 mph WSW4.8 kmh WSW 4.0 mph6.4 kmh 29.82 in1009.8 mb 0.00 in0.0 mm 0.00 in0.0 mm 0.00 in0.0 mm
07:25 PM 96.4°F35.8°C 18.6°F-7.4°C 6% Calm Calm 3.0 mph4.8 kmh 29.82 in1009.8 mb 0.00 in0.0 mm 0.00 in0.0 mm 0.00 in0.0 mm
07:30 PM 96.1°F35.6°C 22.0°F-5.6°C 7% Calm Calm 3.0 mph4.8 kmh 29.82 in1009.8 mb 0.00 in0.0 mm 0.00 in0.0 mm 0.00 in0.0 mm
07:35 PM 95.8°F35.4°C 21.8°F-5.7°C 7% Calm Calm 1.0 mph1.6 kmh 29.82 in1009.8 mb 0.00 in0.0 mm 0.00 in0.0 mm 0.00 in0.0 mm
07:40 PM 95.3°F35.2°C 21.5°F-5.8°C 7% 1.0 mph WSW1.6 kmh WSW 2.0 mph3.2 kmh 29.82 in1009.8 mb 0.00 in0.0 mm 0.00 in0.0 mm 0.00 in0.0 mm
07:45 PM 94.5°F34.7°C 20.9°F-6.2°C 7% Calm Calm 5.0 mph8.0 kmh 29.82 in1009.8 mb 0.00 in0.0 mm 0.00 in0.0 mm 0.00 in0.0 mm
07:50 PM 93.7°F34.3°C 23.5°F-4.7°C 8% 1.0 mph NW1.6 kmh NW 4.0 mph6.4 kmh 29.83 in1010.2 mb 0.00 in0.0 mm 0.00 in0.0 mm 0.00 in0.0 mm
07:55 PM 93.1°F33.9°C 23.0°F-5.0°C 8% 2.0 mph NW3.2 kmh NW 3.0 mph4.8 kmh 29.83 in1010.2 mb 0.00 in0.0 mm 0.00 in0.0 mm 0.00 in0.0 mm
08:00 PM 92.7°F33.7°C 25.5°F-3.6°C 9% 2.0 mph NW3.2 kmh NW 4.0 mph6.4 kmh 29.83 in1010.2 mb 0.00 in0.0 mm 0.00 in0.0 mm 0.00 in0.0 mm
08:05 PM 92.3°F33.5°C 25.2°F-3.8°C 9% 2.0 mph NW3.2 kmh NW 3.0 mph4.8 kmh 29.83 in1010.2 mb 0.00 in0.0 mm 0.00 in0.0 mm 0.00 in0.0 mm
08:10 PM 92.0°F33.3°C 25.0°F-3.9°C 9% 2.0 mph NW3.2 kmh NW 4.0 mph6.4 kmh 29.83 in1010.2 mb 0.00 in0.0 mm 0.00 in0.0 mm 0.00 in0.0 mm
08:15 PM 91.5°F33.1°C 27.2°F-2.7°C 10% 1.0 mph NW1.6 kmh NW 2.0 mph3.2 kmh 29.83 in1010.2 mb 0.00 in0.0 mm 0.00 in0.0 mm 0.00 in0.0 mm
08:20 PM 91.1°F32.8°C 26.9°F-2.8°C 10% 1.0 mph NW1.6 kmh NW 1.0 mph1.6 kmh 29.83 in1010.2 mb 0.00 in0.0 mm 0.00 in0.0 mm 0.00 in0.0 mm
08:25 PM 90.5°F32.5°C 26.4°F-3.1°C 10% Calm Calm 2.0 mph3.2 kmh 29.83 in1010.2 mb 0.00 in0.0 mm 0.00 in0.0 mm 0.00 in0.0 mm
08:30 PM 89.9°F32.2°C 26.0°F-3.3°C 10% 1.0 mph NW1.6 kmh NW 2.0 mph3.2 kmh 29.83 in1010.2 mb 0.00 in0.0 mm 0.00 in0.0 mm 0.00 in0.0 mm
08:35 PM 89.4°F31.9°C 25.6°F-3.6°C 10% 1.0 mph NW1.6 kmh NW 2.0 mph3.2 kmh 29.84 in1010.5 mb 0.00 in0.0 mm 0.00 in0.0 mm 0.00 in0.0 mm
08:40 PM 88.7°F31.5°C 25.1°F-3.8°C 10% 1.0 mph NW1.6 kmh NW 2.0 mph3.2 kmh 29.84 in1010.5 mb 0.00 in0.0 mm 0.00 in0.0 mm 0.00 in0.0 mm
08:45 PM 88.2°F31.2°C 24.7°F-4.1°C 10% 1.0 mph NNW1.6 kmh NNW 2.0 mph3.2 kmh 29.84 in1010.5 mb 0.00 in0.0 mm 0.00 in0.0 mm 0.00 in0.0 mm
08:50 PM 87.6°F30.9°C 26.5°F-3.1°C 11% 2.0 mph NNW3.2 kmh NNW 2.0 mph3.2 kmh 29.84 in1010.5 mb 0.00 in0.0 mm 0.00 in0.0 mm 0.00 in0.0 mm
08:55 PM 87.1°F30.6°C 26.2°F-3.2°C 11% Calm Calm 2.0 mph3.2 kmh 29.84 in1010.5 mb 0.00 in0.0 mm 0.00 in0.0 mm 0.00 in0.0 mm
09:00 PM 86.6°F30.3°C 25.8°F-3.4°C 11% 2.0 mph NNW3.2 kmh NNW 3.0 mph4.8 kmh 29.84 in1010.5 mb 0.00 in0.0 mm 0.00 in0.0 mm 0.00 in0.0 mm
09:05 PM 86.2°F30.1°C 25.5°F-3.6°C 11% 2.0 mph NNW3.2 kmh NNW 3.0 mph4.8 kmh 29.84 in1010.5 mb 0.00 in0.0 mm 0.00 in0.0 mm 0.00 in0.0 mm
09:10 PM 85.8°F29.9°C 25.2°F-3.8°C 11% 1.0 mph N1.6 kmh N 3.0 mph4.8 kmh 29.84 in1010.5 mb 0.00 in0.0 mm 0.00 in0.0 mm 0.00 in0.0 mm
09:15 PM 85.4°F29.7°C 27.0°F-2.8°C 12% 1.0 mph N1.6 kmh N 3.0 mph4.8 kmh 29.85 in1010.8 mb 0.00 in0.0 mm 0.00 in0.0 mm 0.00 in0.0 mm
09:20 PM 85.0°F29.4°C 26.6°F-3.0°C 12% 2.0 mph N3.2 kmh N 3.0 mph4.8 kmh 29.85 in1010.8 mb 0.00 in0.0 mm 0.00 in0.0 mm 0.00 in0.0 mm
09:25 PM 84.6°F29.2°C 26.3°F-3.2°C 12% 1.0 mph NNE1.6 kmh NNE 4.0 mph6.4 kmh 29.85 in1010.8 mb 0.00 in0.0 mm 0.00 in0.0 mm 0.00 in0.0 mm
09:30 PM 84.3°F29.1°C 26.1°F-3.3°C 12% 1.0 mph NNE1.6 kmh NNE 3.0 mph4.8 kmh 29.85 in1010.8 mb 0.00 in0.0 mm 0.00 in0.0 mm 0.00 in0.0 mm
09:35 PM 84.0°F28.9°C 27.8°F-2.3°C 13% Calm Calm 3.0 mph4.8 kmh 29.85 in1010.8 mb 0.00 in0.0 mm 0.00 in0.0 mm 0.00 in0.0 mm
09:40 PM 83.7°F28.7°C 27.6°F-2.4°C 13% 1.0 mph NNE1.6 kmh NNE 2.0 mph3.2 kmh 29.85 in1010.8 mb 0.00 in0.0 mm 0.00 in0.0 mm 0.00 in0.0 mm
09:45 PM 83.6°F28.7°C 27.5°F-2.5°C 13% Calm Calm 2.0 mph3.2 kmh 29.85 in1010.8 mb 0.00 in0.0 mm 0.00 in0.0 mm 0.00 in0.0 mm
09:50 PM 83.3°F28.5°C 27.3°F-2.6°C 13% Calm Calm 2.0 mph3.2 kmh 29.85 in1010.8 mb 0.00 in0.0 mm 0.00 in0.0 mm 0.00 in0.0 mm
09:55 PM 83.1°F28.4°C 27.1°F-2.7°C 13% Calm Calm 1.0 mph1.6 kmh 29.86 in1011.2 mb 0.00 in0.0 mm 0.00 in0.0 mm 0.00 in0.0 mm
10:00 PM 82.9°F28.3°C 27.0°F-2.8°C 13% 1.0 mph NNE1.6 kmh NNE 1.0 mph1.6 kmh 29.86 in1011.2 mb 0.00 in0.0 mm 0.00 in0.0 mm 0.00 in0.0 mm
10:05 PM 82.7°F28.2°C 26.8°F-2.9°C 13% 2.0 mph NNE3.2 kmh NNE 3.0 mph4.8 kmh 29.86 in1011.2 mb 0.00 in0.0 mm 0.00 in0.0 mm 0.00 in0.0 mm
10:10 PM 82.5°F28.1°C 26.6°F-3.0°C 13% 1.0 mph NNE1.6 kmh NNE 3.0 mph4.8 kmh 29.86 in1011.2 mb 0.00 in0.0 mm 0.00 in0.0 mm 0.00 in0.0 mm
10:15 PM 82.2°F27.9°C 26.4°F-3.1°C 13% 2.0 mph NNE3.2 kmh NNE 3.0 mph4.8 kmh 29.86 in1011.2 mb 0.00 in0.0 mm 0.00 in0.0 mm 0.00 in0.0 mm
10:20 PM 82.0°F27.8°C 26.2°F-3.2°C 13% 2.0 mph NNE3.2 kmh NNE 3.0 mph4.8 kmh 29.86 in1011.2 mb 0.00 in0.0 mm 0.00 in0.0 mm 0.00 in0.0 mm
10:25 PM 81.8°F27.7°C 26.1°F-3.3°C 13% Calm Calm 3.0 mph4.8 kmh 29.86 in1011.2 mb 0.00 in0.0 mm 0.00 in0.0 mm 0.00 in0.0 mm
10:30 PM 81.7°F27.6°C 26.0°F-3.3°C 13% Calm Calm 1.0 mph1.6 kmh 29.86 in1011.2 mb 0.00 in0.0 mm 0.00 in0.0 mm 0.00 in0.0 mm
10:35 PM 81.4°F27.4°C 27.6°F-2.4°C 14% Calm Calm 2.0 mph3.2 kmh 29.86 in1011.2 mb 0.00 in0.0 mm 0.00 in0.0 mm 0.00 in0.0 mm
10:40 PM 81.2°F27.3°C 27.4°F-2.6°C 14% 2.0 mph NNE3.2 kmh NNE 2.0 mph3.2 kmh 29.86 in1011.2 mb 0.00 in0.0 mm 0.00 in0.0 mm 0.00 in0.0 mm
10:45 PM 81.0°F27.2°C 27.3°F-2.6°C 14% 1.0 mph NNE1.6 kmh NNE 2.0 mph3.2 kmh 29.86 in1011.2 mb 0.00 in0.0 mm 0.00 in0.0 mm 0.00 in0.0 mm
10:50 PM 80.8°F27.1°C 27.1°F-2.7°C 14% 1.0 mph NNE1.6 kmh NNE 2.0 mph3.2 kmh 29.86 in1011.2 mb 0.00 in0.0 mm 0.00 in0.0 mm 0.00 in0.0 mm
10:55 PM 80.6°F27.0°C 26.9°F-2.8°C 14% 1.0 mph NNE1.6 kmh NNE 3.0 mph4.8 kmh 29.86 in1011.2 mb 0.00 in0.0 mm 0.00 in0.0 mm 0.00 in0.0 mm
11:00 PM 80.4°F26.9°C 26.8°F-2.9°C 14% Calm Calm 2.0 mph3.2 kmh 29.86 in1011.2 mb 0.00 in0.0 mm 0.00 in0.0 mm 0.00 in0.0 mm
11:05 PM 80.2°F26.8°C 26.6°F-3.0°C 14% Calm Calm 2.0 mph3.2 kmh 29.86 in1011.2 mb 0.00 in0.0 mm 0.00 in0.0 mm 0.00 in0.0 mm
11:10 PM 80.0°F26.7°C 26.5°F-3.1°C 14% 2.0 mph NNE3.2 kmh NNE 2.0 mph3.2 kmh 29.86 in1011.2 mb 0.00 in0.0 mm 0.00 in0.0 mm 0.00 in0.0 mm
11:15 PM 79.8°F26.6°C 26.3°F-3.2°C 14% Calm Calm 2.0 mph3.2 kmh 29.86 in1011.2 mb 0.00 in0.0 mm 0.00 in0.0 mm 0.00 in0.0 mm
11:20 PM 79.6°F26.4°C 26.2°F-3.2°C 14% 2.0 mph NNE3.2 kmh NNE 3.0 mph4.8 kmh 29.86 in1011.2 mb 0.00 in0.0 mm 0.00 in0.0 mm 0.00 in0.0 mm
11:25 PM 79.5°F26.4°C 26.1°F-3.3°C 14% Calm Calm 3.0 mph4.8 kmh 29.86 in1011.2 mb 0.00 in0.0 mm 0.00 in0.0 mm 0.00 in0.0 mm
11:30 PM 79.3°F26.3°C 25.9°F-3.4°C 14% 1.0 mph NNE1.6 kmh NNE 2.0 mph3.2 kmh 29.86 in1011.2 mb 0.00 in0.0 mm 0.00 in0.0 mm 0.00 in0.0 mm
11:35 PM 79.2°F26.2°C 25.8°F-3.4°C 14% Calm Calm 2.0 mph3.2 kmh 29.86 in1011.2 mb 0.00 in0.0 mm 0.00 in0.0 mm 0.00 in0.0 mm
11:40 PM 79.1°F26.2°C 25.8°F-3.4°C 14% 1.0 mph NNE1.6 kmh NNE 2.0 mph3.2 kmh 29.86 in1011.2 mb 0.00 in0.0 mm 0.00 in0.0 mm 0.00 in0.0 mm
11:45 PM 79.0°F26.1°C 25.7°F-3.5°C 14% 2.0 mph NNE3.2 kmh NNE 2.0 mph3.2 kmh 29.86 in1011.2 mb 0.00 in0.0 mm 0.00 in0.0 mm 0.00 in0.0 mm
11:50 PM 78.9°F26.1°C 25.6°F-3.6°C 14% 1.0 mph NNE1.6 kmh NNE 3.0 mph4.8 kmh 29.86 in1011.2 mb 0.00 in0.0 mm 0.00 in0.0 mm 0.00 in0.0 mm
11:55 PM 78.8°F26.0°C 25.5°F-3.6°C 14% 2.0 mph N3.2 kmh N 5.0 mph8.0 kmh 29.87 in1011.5 mb 0.00 in0.0 mm 0.00 in0.0 mm 0.00 in0.0 mm